Sebewaing, Michigan
Current Conditions -  °F | °C
As of 10:14 PM on Thursday 18 Dec 2014 (Local Time) from KCFS Reporting Station
Overcast Overcast  
Wind Chill: 21°   Ceiling: 1300
Heat Index: 26°   Visibility: 10mi
Dew Point: 22°   Wind: 5mph
Humidity: 84%   Direction: 330°NNW
Pressure: 30.2"   Gusts: NA
Location:  43.73°N, 83.45°W
Report Text: KCFS 190314Z AUTO 33004KT 10SM OVC013 M03/M05 A3020 RMK AO2 T10321055
Loading
Personal Weather Stations






























Interactive Weather Map New forecast layout! Learn more

10-Day Weather Forecast

Advertisements
Track Severe Weather on mobile